createdAt,value
2018-01-25T06:16:43.871Z,70.00
2018-01-25T06:19:10.281Z,69.80
2018-01-25T06:21:37.208Z,69.00
2018-01-25T06:24:04.144Z,66.80
2018-01-25T06:26:31.171Z,64.70
2018-01-25T06:28:57.548Z,62.20
2018-01-25T06:31:24.268Z,60.20
2018-01-25T06:33:51.088Z,58.00
2018-01-25T06:36:17.682Z,56.00
2018-01-25T06:38:44.176Z,54.20
2018-01-25T06:41:10.576Z,52.50
2018-01-25T06:43:37.240Z,50.50
2018-01-25T06:46:03.773Z,48.80
2018-01-25T06:48:30.632Z,47.20
2018-01-25T06:50:57.096Z,46.60
2018-01-25T06:53:23.632Z,45.40
2018-01-25T06:55:50.225Z,44.80
2018-01-25T06:58:16.728Z,43.30
2018-01-25T07:00:43.292Z,42.20
2018-01-25T07:03:10.156Z,41.10
2018-01-25T07:05:36.600Z,40.50
2018-01-25T07:08:03.241Z,39.50
2018-01-25T07:10:29.699Z,38.00
2018-01-25T07:12:56.248Z,37.40
2018-01-25T07:15:22.878Z,36.70
2018-01-25T07:17:49.304Z,36.30
2018-01-25T07:20:15.855Z,35.40
2018-01-25T07:22:42.360Z,34.70
2018-01-25T07:25:08.951Z,34.30
2018-01-25T07:27:35.521Z,33.60
2018-01-25T07:30:01.968Z,33.10
2018-01-25T07:32:28.917Z,32.70
2018-01-25T07:34:55.357Z,32.40
2018-01-25T07:37:21.975Z,32.90
2018-01-25T07:39:48.440Z,32.30
2018-01-25T07:42:14.836Z,31.50
2018-01-25T07:44:41.517Z,30.70
2018-01-25T07:47:08.035Z,30.40
2018-01-25T07:49:34.652Z,30.00
2018-01-25T07:52:01.185Z,30.10
2018-01-25T07:54:27.638Z,29.80
2018-01-25T07:56:54.237Z,29.80
2018-01-25T07:59:20.704Z,29.90
2018-01-25T08:01:47.333Z,29.20
2018-01-25T08:04:14.552Z,29.70
2018-01-25T08:06:41.578Z,29.00
2018-01-25T08:09:08.921Z,29.60
2018-01-25T08:11:35.531Z,28.70
2018-01-25T08:14:02.127Z,29.10
2018-01-25T08:16:34.625Z,28.30
2018-01-25T08:19:02.130Z,28.50
2018-01-25T08:21:29.020Z,28.10
2018-01-25T08:23:55.566Z,28.00
2018-01-25T08:26:22.188Z,28.00
2018-01-25T08:28:48.658Z,28.10
2018-01-25T08:31:15.482Z,28.30
2018-01-25T08:33:42.101Z,28.10
2018-01-25T08:36:09.839Z,28.10
2018-01-25T08:38:36.640Z,28.50
2018-01-25T08:41:04.091Z,28.30
2018-01-25T08:43:30.988Z,28.00
2018-01-25T08:45:57.500Z,27.80
2018-01-25T08:48:24.344Z,28.30
2018-01-25T08:50:50.825Z,27.40
2018-01-25T08:53:17.392Z,28.30
2018-01-25T08:55:43.990Z,28.80
2018-01-25T08:58:11.056Z,28.00
2018-01-25T09:00:37.926Z,28.00
2018-01-25T09:03:04.496Z,27.30
2018-01-25T09:05:31.024Z,27.90
2018-01-25T09:07:57.653Z,28.30
2018-01-25T09:10:24.420Z,27.50
2018-01-25T09:12:50.990Z,27.90
2018-01-25T09:15:17.446Z,27.60
2018-01-25T09:17:43.968Z,28.20
2018-01-25T09:20:10.633Z,27.50
2018-01-25T09:22:37.336Z,27.90
2018-01-25T09:25:04.175Z,27.90
2018-01-25T09:27:30.669Z,27.90
2018-01-25T09:29:57.265Z,27.60
2018-01-25T09:32:23.843Z,27.60
2018-01-25T09:34:50.308Z,27.40
2018-01-25T09:37:16.704Z,27.40
2018-01-25T09:39:43.494Z,27.10
2018-01-25T09:42:09.977Z,27.30
2018-01-25T09:44:36.589Z,27.50
2018-01-25T09:47:03.361Z,27.40
2018-01-25T09:49:29.897Z,27.60
2018-01-25T09:51:56.380Z,27.70
2018-01-25T09:54:23.012Z,27.10
2018-01-25T09:56:49.517Z,27.10
2018-01-25T09:59:16.040Z,27.40
2018-01-25T10:01:42.962Z,27.50
2018-01-25T10:04:09.849Z,27.00
2018-01-25T10:06:36.631Z,27.20
2018-01-25T10:09:03.960Z,27.10
2018-01-25T10:11:30.552Z,27.50
2018-01-25T10:13:56.992Z,27.70
2018-01-25T10:16:23.881Z,28.20
2018-01-25T10:18:50.423Z,28.20
2018-01-25T10:21:17.021Z,28.10
2018-01-25T10:23:43.433Z,29.40
2018-01-25T10:26:09.997Z,29.20
2018-01-25T10:28:36.565Z,29.50
2018-01-25T10:31:03.412Z,29.20
2018-01-25T10:33:29.971Z,29.70
2018-01-25T10:35:56.455Z,29.00
2018-01-25T10:38:23.370Z,29.10
2018-01-25T10:40:49.840Z,28.80
2018-01-25T10:43:16.370Z,29.40
2018-01-25T10:45:42.916Z,29.70
2018-01-25T10:48:09.756Z,30.20
2018-01-25T10:50:36.274Z,29.80
2018-01-25T10:53:02.827Z,30.00
2018-01-25T10:55:29.493Z,29.90
2018-01-25T10:57:56.237Z,30.20
2018-01-25T11:00:22.667Z,30.40
2018-01-25T11:02:49.368Z,30.90
2018-01-25T11:05:15.780Z,31.30
2018-01-25T11:07:42.316Z,31.90
2018-01-25T11:10:08.912Z,31.20
2018-01-25T11:12:35.392Z,32.20
2018-01-25T11:15:01.953Z,32.80
2018-01-25T11:17:28.551Z,32.70
2018-01-25T11:19:54.984Z,32.40
2018-01-25T11:22:21.972Z,35.10
2018-01-25T11:24:48.996Z,35.80
2018-01-25T11:27:16.448Z,35.90
2018-01-25T11:29:43.036Z,35.80
2018-01-25T11:32:09.528Z,37.70
2018-01-25T11:34:36.109Z,38.00
2018-01-25T11:37:02.966Z,39.90
2018-01-25T11:39:29.434Z,39.90
2018-01-25T11:41:55.983Z,40.70
2018-01-25T11:44:22.564Z,41.00
2018-01-25T11:46:49.092Z,40.70
2018-01-25T11:49:15.670Z,40.00
2018-01-25T11:51:42.091Z,39.30
2018-01-25T11:54:08.704Z,39.90
2018-01-25T11:56:35.227Z,39.50
2018-01-25T11:59:01.791Z,39.70
2018-01-25T12:01:30.011Z,39.30
2018-01-25T12:03:56.689Z,39.50
2018-01-25T12:06:23.542Z,39.50
2018-01-25T12:08:50.016Z,39.80
2018-01-25T12:11:16.701Z,40.50
2018-01-25T12:13:43.671Z,39.60
2018-01-25T12:16:10.291Z,41.10
2018-01-25T12:18:36.786Z,41.60
2018-01-25T12:21:03.271Z,40.80
2018-01-25T12:23:29.942Z,40.60
2018-01-25T12:25:56.356Z,41.70
2018-01-25T12:28:23.536Z,42.50
2018-01-25T12:30:50.424Z,42.50
2018-01-25T12:33:16.880Z,42.80
2018-01-25T12:35:43.460Z,42.40
2018-01-25T12:38:10.024Z,41.90
2018-01-25T12:40:36.478Z,42.80
2018-01-25T12:43:02.899Z,42.40
2018-01-25T12:45:29.877Z,42.50
2018-01-25T12:47:56.760Z,41.90
2018-01-25T12:50:23.248Z,43.50
2018-01-25T12:52:49.808Z,43.40
2018-01-25T12:55:16.332Z,43.10
2018-01-25T12:57:42.847Z,43.50
2018-01-25T13:00:09.468Z,44.10
2018-01-25T13:02:37.536Z,43.80
2018-01-25T13:05:04.388Z,43.60
2018-01-25T13:07:30.904Z,44.20
2018-01-25T13:09:57.693Z,44.80
2018-01-25T13:12:24.244Z,44.50
2018-01-25T13:14:51.087Z,43.80
2018-01-25T13:17:17.956Z,44.00
2018-01-25T13:19:44.775Z,44.30
2018-01-25T13:22:11.344Z,44.60
2018-01-25T13:24:37.941Z,44.80
2018-01-25T13:27:04.372Z,44.80
2018-01-25T13:29:30.762Z,44.80
2018-01-25T13:31:57.432Z,45.10
2018-01-25T13:34:23.969Z,45.70
2018-01-25T13:36:51.140Z,45.20
2018-01-25T13:39:17.544Z,45.40
2018-01-25T13:41:44.260Z,46.10
2018-01-25T13:44:10.785Z,45.90
2018-01-25T13:46:37.608Z,46.20
2018-01-25T13:49:04.706Z,46.40
2018-01-25T13:51:31.249Z,47.30
2018-01-25T13:53:59.101Z,47.40
2018-01-25T13:56:25.564Z,47.40
2018-01-25T13:58:53.022Z,48.10
2018-01-25T14:01:19.940Z,47.90
2018-01-25T14:03:47.231Z,47.00
2018-01-25T14:06:13.833Z,47.70
2018-01-25T14:08:40.363Z,47.80
2018-01-25T14:11:07.232Z,47.90
2018-01-25T14:13:33.776Z,47.80
2018-01-25T14:16:00.287Z,47.60
2018-01-25T14:18:26.910Z,48.80
2018-01-25T14:20:54.337Z,48.90
2018-01-25T14:23:21.140Z,48.30
2018-01-25T14:25:47.652Z,48.90
2018-01-25T14:28:14.251Z,49.20
2018-01-25T14:30:40.732Z,49.80
2018-01-25T14:33:07.569Z,49.70
2018-01-25T14:35:33.950Z,50.50
2018-01-25T14:38:01.300Z,50.60
2018-01-25T14:40:27.812Z,50.50
2018-01-25T14:42:54.347Z,50.80
2018-01-25T14:45:20.989Z,51.50
2018-01-25T14:47:47.747Z,51.70
2018-01-25T14:50:14.259Z,52.10
2018-01-25T14:52:41.111Z,52.50
2018-01-25T14:55:07.647Z,52.40
2018-01-25T14:57:34.139Z,52.60
2018-01-25T15:00:01.003Z,53.00
2018-01-25T15:02:27.539Z,53.40
2018-01-25T15:04:54.076Z,53.60
2018-01-25T15:07:20.589Z,54.00
2018-01-25T15:09:48.051Z,54.70
2018-01-25T15:12:14.976Z,54.60
2018-01-25T15:14:41.500Z,54.90
2018-01-25T15:17:08.017Z,55.50
2018-01-25T15:19:34.573Z,56.20
2018-01-25T15:22:01.029Z,56.70
2018-01-25T15:24:27.592Z,57.00
2018-01-25T15:26:54.104Z,57.30
2018-01-25T15:29:20.516Z,57.90
2018-01-25T15:31:47.293Z,58.10
2018-01-25T15:34:13.768Z,58.80
2018-01-25T15:36:40.341Z,59.40
2018-01-25T15:39:06.836Z,60.00
2018-01-25T15:41:33.708Z,60.20
2018-01-25T15:44:00.888Z,60.50
2018-01-25T15:46:27.990Z,60.50
2018-01-25T15:48:54.493Z,61.50
2018-01-25T15:51:20.993Z,61.50
2018-01-25T15:53:47.588Z,61.60
2018-01-25T15:56:14.068Z,62.30
2018-01-25T15:58:40.611Z,62.80
2018-01-25T16:01:07.152Z,63.40
2018-01-25T16:03:33.740Z,63.50
2018-01-25T16:06:00.308Z,62.70
2018-01-25T16:08:26.769Z,62.10
2018-01-25T16:10:53.611Z,62.70
2018-01-25T16:13:20.128Z,63.50
2018-01-25T16:15:46.643Z,63.80
2018-01-25T16:18:17.040Z,64.00
2018-01-25T16:20:44.916Z,64.00
2018-01-25T16:23:11.600Z,63.90
2018-01-25T16:25:38.021Z,64.40
2018-01-25T16:28:04.404Z,64.90
2018-01-25T16:30:31.422Z,65.10
2018-01-25T16:32:57.942Z,65.20
2018-01-25T16:35:24.472Z,65.10
2018-01-25T16:37:50.869Z,65.60
2018-01-25T16:40:17.604Z,65.40
2018-01-25T16:42:44.019Z,65.70
2018-01-25T16:45:11.572Z,65.90
2018-01-25T16:47:38.060Z,65.90
2018-01-25T16:50:04.630Z,65.70
2018-01-25T16:52:31.136Z,65.80
2018-01-25T16:54:58.668Z,66.20
2018-01-25T16:57:25.163Z,66.30
2018-01-25T16:59:51.717Z,67.00
2018-01-25T17:02:18.188Z,66.80
2018-01-25T17:04:44.789Z,66.50
2018-01-25T17:07:11.345Z,66.50
2018-01-25T17:09:38.408Z,67.10
2018-01-25T17:12:04.957Z,67.30
2018-01-25T17:14:32.481Z,67.10
2018-01-25T17:16:59.048Z,67.00
2018-01-25T17:19:25.540Z,67.30
2018-01-25T17:21:52.088Z,67.40
2018-01-25T17:24:18.567Z,67.60
2018-01-25T17:26:45.076Z,68.10
2018-01-25T17:29:11.663Z,67.90
2018-01-25T17:31:38.235Z,67.80
2018-01-25T17:34:04.680Z,67.60
2018-01-25T17:36:31.232Z,67.90
2018-01-25T17:38:57.748Z,67.50
2018-01-25T17:41:24.320Z,67.80
2018-01-25T17:43:50.881Z,67.80
2018-01-25T17:46:17.404Z,67.70
2018-01-25T17:48:44.251Z,68.60
2018-01-25T17:51:10.734Z,69.10
2018-01-25T17:53:37.277Z,69.20
2018-01-25T17:56:03.832Z,69.30
2018-01-25T17:58:30.641Z,69.10
2018-01-25T18:00:57.061Z,68.20
2018-01-25T18:03:23.849Z,67.40
2018-01-25T18:05:50.577Z,67.20
2018-01-25T18:08:17.408Z,66.90
2018-01-25T18:10:43.939Z,66.90
2018-01-25T18:13:10.552Z,67.10
2018-01-25T18:15:37.040Z,67.40
2018-01-25T18:18:03.474Z,67.20
2018-01-25T18:20:30.112Z,67.40
2018-01-25T18:22:56.935Z,67.40
2018-01-25T18:25:23.448Z,67.40
2018-01-25T18:27:50.064Z,68.40
2018-01-25T18:30:16.512Z,67.80
2018-01-25T18:32:43.099Z,67.70
2018-01-25T18:35:09.604Z,67.90
2018-01-25T18:37:36.188Z,68.00
2018-01-25T18:40:02.721Z,67.70
2018-01-25T18:42:29.213Z,68.70
2018-01-25T18:44:56.519Z,68.90
2018-01-25T18:47:23.523Z,69.10
2018-01-25T18:49:50.040Z,68.80
2018-01-25T18:52:16.898Z,68.60
2018-01-25T18:54:43.468Z,68.60
2018-01-25T18:57:09.995Z,67.90
2018-01-25T18:59:36.847Z,68.10
2018-01-25T19:02:03.671Z,68.00
2018-01-25T19:04:30.461Z,68.70
2018-01-25T19:06:57.073Z,69.20
2018-01-25T19:09:23.580Z,69.80
2018-01-25T19:11:50.128Z,69.40
2018-01-25T19:14:16.677Z,69.90
2018-01-25T19:16:43.169Z,69.80
2018-01-25T19:19:09.704Z,70.00
2018-01-25T19:21:36.212Z,70.00
2018-01-25T19:24:03.006Z,70.40
2018-01-25T19:26:29.649Z,70.20
2018-01-25T19:28:56.167Z,70.40
2018-01-25T19:31:22.716Z,70.40
2018-01-25T19:33:49.164Z,70.30
2018-01-25T19:36:16.108Z,70.40
2018-01-25T19:38:42.531Z,70.90
2018-01-25T19:41:09.112Z,71.10
2018-01-25T19:43:35.700Z,71.40
2018-01-25T19:46:02.505Z,71.80
2018-01-25T19:48:29.934Z,71.60
2018-01-25T19:50:56.551Z,71.70
2018-01-25T19:53:23.073Z,71.60
2018-01-25T19:55:49.559Z,71.30
2018-01-25T19:58:16.100Z,71.30
2018-01-25T20:00:42.610Z,70.80
2018-01-25T20:03:09.220Z,70.60
2018-01-25T20:05:35.726Z,70.70
2018-01-25T20:08:02.331Z,70.90
2018-01-25T20:10:28.813Z,71.00
2018-01-25T20:12:55.291Z,70.70
2018-01-25T20:15:21.884Z,70.40
2018-01-25T20:17:50.510Z,70.30
2018-01-25T20:20:16.983Z,70.10
2018-01-25T20:22:43.660Z,70.00
2018-01-25T20:25:10.159Z,70.10
2018-01-25T20:27:36.721Z,70.00
2018-01-25T20:30:03.146Z,70.10
2018-01-25T20:32:30.979Z,69.70
2018-01-25T20:34:58.288Z,69.70
2018-01-25T20:37:25.031Z,69.80
2018-01-25T20:39:51.476Z,69.70
2018-01-25T20:42:18.440Z,69.60
2018-01-25T20:44:44.867Z,69.60
2018-01-25T20:47:11.474Z,70.00
2018-01-25T20:49:37.967Z,69.90
2018-01-25T20:52:04.774Z,69.90
2018-01-25T20:54:31.377Z,69.80
2018-01-25T20:56:58.152Z,70.20
2018-01-25T20:59:24.798Z,70.90
2018-01-25T21:01:51.227Z,71.00
2018-01-25T21:04:18.053Z,71.00
2018-01-25T21:06:44.633Z,70.70
2018-01-25T21:09:11.119Z,70.80
2018-01-25T21:11:38.676Z,70.80
2018-01-25T21:14:05.162Z,71.00
